Flight Track Log - Related Links

Times and Time Zones

All times are in EDT time to prevent confusion due to time zone crossing. See the N109MD flight status page for this flight to view local times or setup timezone preferences in your user account.

Time Position Orientation Groundspeed Altitude Reporting Facility
EDT Latitude Longitude Course Direction KTS MPH feet Rate Location/Type
Sun 02:27:28 PM 36.8328 -111.4889 228° Southwest 191 220 7,800  Level Denver Center
Sun 02:28:30 PM 36.8081 -111.5383 238° Southwest 180 207 9,600 1,548 Climbing Denver Center
Sun 02:29:32 PM 36.7833 -111.5869 238° Southwest 173 199 11,000 1,355 Climbing Denver Center
Sun 02:30:00 PM 36.6916 -111.8308 233° Southwest  Level FlightAware Approximate
Sun 02:30:34 PM 36.7544 -111.6378 235° Southwest 173 199 12,400  Level Denver Center
Sun 02:31:00 PM 36.6530 -111.8950 233° Southwest  Level FlightAware Approximate
Sun 02:31:42 PM 36.7150 -111.7064 234° Southwest 183 211 14,200  Level Los Angeles Center
Sun 02:32:44 PM 36.6897 -111.7561 238° Southwest 171 197 15,700 1,296 Climbing Los Angeles Center
Sun 02:33:47 PM 36.6653 -111.8078 239° Southwest 171 197 16,900 1,008 Climbing Los Angeles Center
Sun 02:34:49 PM 36.6311 -111.8739 237° Southwest 187 215 17,800 1,016 Climbing Los Angeles Center
Sun 02:35:51 PM 36.6044 -111.9314 240° Southwest 191 220 19,000 1,161 Climbing Los Angeles Center
Sun 02:36:53 PM 36.5808 -111.9861 242° Southwest 181 208 20,200 1,065 Climbing Los Angeles Center
Sun 02:37:55 PM 36.5592 -112.0369 242° Southwest 167 192 21,200 871 Climbing Los Angeles Center
Sun 02:38:57 PM 36.5364 -112.0889 241° Southwest 168 193 22,000 774 Climbing Los Angeles Center
Sun 02:39:59 PM 36.5203 -112.1458 251° West 173 199 22,800 823 Climbing Los Angeles Center
Sun 02:41:01 PM 36.5017 -112.2161 252° West 178 205 23,700 774 Climbing Los Angeles Center
Sun 02:42:03 PM 36.4889 -112.2769 255° West 181 208 24,400 677 Climbing Los Angeles Center
Sun 02:43:05 PM 36.4742 -112.3436 255° West 195 224 25,100 768 Climbing Los Angeles Center
Sun 02:44:08 PM 36.4606 -112.4103 256° West 199 229 26,000 816 Climbing Los Angeles Center
Sun 02:45:10 PM 36.4483 -112.4775 257° West 200 230 26,800 726 Climbing Los Angeles Center
Sun 02:46:12 PM 36.4383 -112.5442 259° West 196 226 27,500 581 Climbing Los Angeles Center
Sun 02:47:14 PM 36.4256 -112.6258 259° West 199 229 28,000 242 Climbing Los Angeles Center
Sun 02:48:16 PM 36.4103 -112.7003 256° West 219 252 28,000  Level Los Angeles Center
Sun 02:49:18 PM 36.3944 -112.7817 256° West 239 275 28,000  Level Los Angeles Center
Sun 02:50:20 PM 36.3781 -112.8644 256° West 246 283 28,000  Level Los Angeles Center
Sun 02:51:22 PM 36.3614 -112.9494 256° West 253 291 28,000  Level Los Angeles Center
Sun 02:52:24 PM 36.3467 -113.0367 258° West 257 296 28,000  Level Los Angeles Center
Sun 02:53:27 PM 36.3292 -113.1403 258° West 258 297 28,000  Level Los Angeles Center
Sun 02:54:29 PM 36.3144 -113.2275 258° West 259 298 28,000  Level Los Angeles Center
Sun 02:55:31 PM 36.3008 -113.3122 259° West 255 293 28,000  Level Los Angeles Center
Sun 02:56:33 PM 36.2839 -113.3958 256° West 252 290 28,000  Level Los Angeles Center
Sun 02:57:35 PM 36.2686 -113.4806 257° West 251 289 28,000  Level Los Angeles Center
Sun 02:58:37 PM 36.2508 -113.5806 258° West 250 288 28,000  Level Los Angeles Center
Sun 02:59:39 PM 36.2358 -113.6636 257° West 248 285 28,000  Level Los Angeles Center
Sun 03:00:41 PM 36.2211 -113.7464 258° West 246 283 28,000  Level Los Angeles Center
Sun 03:01:44 PM 36.2064 -113.8292 258° West 248 285 28,000  Level Los Angeles Center
Sun 03:02:46 PM 36.1906 -113.9117 257° West 247 284 28,000  Level Los Angeles Center
Sun 03:03:48 PM 36.1744 -113.9953 257° West 248 285 28,000  Level Los Angeles Center
Sun 03:04:50 PM 36.1547 -114.0950 256° West 249 287 28,000  Level Los Angeles Center
Sun 03:05:52 PM 36.1378 -114.1789 256° West 251 289 28,000  Level Los Angeles Center
Sun 03:06:54 PM 36.1189 -114.2619 254° West 251 289 28,000  Level Los Angeles Center
Sun 03:07:56 PM 36.1033 -114.3428 257° West 246 283 28,000  Level Los Angeles Center
Sun 03:08:58 PM 36.0864 -114.4233 255° West 242 278 28,000  Level Los Angeles Center
Sun 03:10:00 PM 36.0697 -114.5019 255° West 240 276 28,000  Level Los Angeles Center
Sun 03:11:03 PM 36.0511 -114.5956 256° West 237 273 28,000  Level Los Angeles Center
Sun 03:12:05 PM 36.0347 -114.6711 255° West 231 266 28,000  Level Los Angeles Center
Sun 03:13:07 PM 36.0194 -114.7481 256° West 231 266 28,000  Level Los Angeles Center
Sun 03:14:09 PM 36.0042 -114.8244 256° West 230 265 28,000  Level Los Angeles Center
Sun 03:15:11 PM 35.9803 -114.8872 245° Southwest 205 236 28,000  Level Los Angeles Center
Sun 03:16:13 PM 35.9425 -114.9367 227° Southwest 195 224 28,000  Level Los Angeles Center
Sun 03:17:15 PM 35.9044 -114.9886 228° Southwest 202 232 28,000  Level Los Angeles Center
Sun 03:18:17 PM 35.8569 -115.0517 227° Southwest 207 238 28,000  Level Los Angeles Center
Sun 03:19:20 PM 35.8181 -115.1061 229° Southwest 211 243 28,000  Level Los Angeles Center
Sun 03:20:22 PM 35.7789 -115.1611 229° Southwest 212 244 28,000  Level Los Angeles Center
Sun 03:21:24 PM 35.7386 -115.2136 227° Southwest 210 242 28,000  Level Los Angeles Center
Sun 03:22:26 PM 35.7008 -115.2658 228° Southwest 205 236 28,000  Level Los Angeles Center
Sun 03:23:28 PM 35.6611 -115.3208 228° Southwest 211 243 28,000  Level Los Angeles Center
Sun 03:24:30 PM 35.6131 -115.3856 228° Southwest 213 245 28,000  Level Los Angeles Center
Sun 03:25:32 PM 35.5725 -115.4397 227° Southwest 215 247 28,000  Level Los Angeles Center
Sun 03:26:34 PM 35.5317 -115.4953 228° Southwest 219 252 28,000  Level Los Angeles Center
Sun 03:27:36 PM 35.4911 -115.5489 227° Southwest 216 249 28,000  Level Los Angeles Center
Sun 03:28:39 PM 35.4533 -115.6011 228° Southwest 214 246 28,000  Level Los Angeles Center
Sun 03:29:41 PM 35.4122 -115.6556 227° Southwest 217 250 28,000  Level Los Angeles Center
Sun 03:30:43 PM 35.3625 -115.7200 227° Southwest 218 251 28,000  Level Los Angeles Center
Sun 03:31:45 PM 35.3214 -115.7756 228° Southwest 219 252 28,000  Level Los Angeles Center
Sun 03:32:48 PM 35.2800 -115.8311 228° Southwest 221 254 28,000  Level Los Angeles Center
Sun 03:33:50 PM 35.2372 -115.8858 226° Southwest 222 255 28,000  Level Los Angeles Center
Sun 03:34:52 PM 35.1950 -115.9425 228° Southwest 224 258 28,000  Level Los Angeles Center
Sun 03:35:54 PM 35.1561 -115.9975 229° Southwest 217 250 28,000  Level Los Angeles Center
Sun 03:36:56 PM 35.1542 -116.1000 269° West 251 289 28,000  Level Los Angeles Center
Sun 03:37:58 PM 35.1544 -116.1831 270° West 247 284 28,000  Level Los Angeles Center
Sun 03:39:00 PM 35.1528 -116.2681 269° West 249 287 28,000  Level Los Angeles Center
Sun 03:40:02 PM 35.1533 -116.3531 270° West 251 289 28,000  Level Los Angeles Center
Sun 03:41:05 PM 35.1525 -116.4369 269° West 250 288 28,000  Level Los Angeles Center
Sun 03:42:07 PM 35.1531 -116.5383 270° West 248 285 28,000  Level Los Angeles Center
Sun 03:43:09 PM 35.1522 -116.6225 269° West 248 285 28,000  Level Los Angeles Center
Sun 03:44:11 PM 35.1517 -116.7044 270° West 244 281 28,000  Level Los Angeles Center
Sun 03:45:13 PM 35.1511 -116.7869 270° West 243 280 28,000  Level Los Angeles Center
Sun 03:46:15 PM 35.1497 -116.8706 269° West 245 282 28,000 -97 Level Los Angeles Center
Sun 03:47:17 PM 35.1500 -116.9550 270° West 248 285 27,800 -532 Descending Los Angeles Center
Sun 03:48:19 PM 35.1608 -117.0636 277° West 268 308 26,900 -823 Descending Los Angeles Center
Sun 03:49:21 PM 35.1758 -117.1597 281° West 285 328 26,100 -816 Descending Los Angeles Center
Sun 03:50:24 PM 35.1889 -117.2558 279° West 287 330 25,200 -960 Descending Los Angeles Center
Sun 03:51:26 PM 35.2006 -117.3550 278° West 294 338 24,100 -1,016 Descending Los Angeles Center
Sun 03:52:28 PM 35.1964 -117.4547 267° West 300 345 23,100 -1,065 Descending Los Angeles Center
Sun 03:53:30 PM 35.1908 -117.5731 267° West 297 342 21,900 -1,065 Descending Los Angeles Center
Sun 03:54:32 PM 35.1853 -117.6722 266° West 299 344 20,900 -968 Descending Los Angeles Center
Sun 03:55:34 PM 35.1794 -117.7694 266° West 294 338 19,900 -1,113 Descending Los Angeles Center
Sun 03:56:36 PM 35.1733 -117.8689 266° West 294 338 18,600 -1,403 Descending Los Angeles Center
Sun 03:57:38 PM 35.1669 -117.9875 266° West 294 338 17,000 -1,440 Descending Los Angeles Center
Sun 03:58:41 PM 35.1614 -118.0819 266° West 284 327 15,600 -1,584 Descending Los Angeles Center
Sun 03:59:43 PM 35.1564 -118.1783 266° West 285 328 13,700 -1,839 Descending Los Angeles Center
Sun 04:00:45 PM 35.1503 -118.2775 266° West 284 327 11,800 -1,645 Descending Los Angeles Center
Sun 04:01:47 PM 35.1444 -118.3683 266° West 280 322 10,300 -871 Descending Los Angeles Center
Sun 04:02:49 PM 35.1375 -118.4742 265° West 264 304 10,000 -290 Descending Los Angeles Center
Sun 04:03:51 PM 35.1483 -118.5544 279° West 237 273 9,700 -726 Descending Los Angeles Center
Sun 04:04:53 PM 35.1619 -118.6378 281° West 249 287 8,500 -1,210 Descending Los Angeles Center
Sun 04:05:55 PM 35.1861 -118.7178 290° West 252 290 7,200 726 Descending Los Angeles Center
Sun 04:06:57 PM 35.2161 -118.7933 296° West 250 288 10,000 1,355 Climbing Los Angeles Center
Sun 04:07:59 PM 35.2675 -118.8464 320° Northwest 246 283 10,000  Level Los Angeles Center
Sun 04:09:00 PM 35.3045 -118.9090 302° West  Level FlightAware Approximate
Sun 04:16:00 PM 35.4333 -119.0500 321° Northwest  Level FlightAware Approximate
Sun 04:17:00 PM 35.4339 -119.0577 321° Northwest  Level Estimated
Sun 04:18:00 PM 35.4333 -119.0500 321° Northwest  Level FlightAware Approximate
Sun 04:19:00 PM 35.4339 -119.0577 321° Northwest  Level Estimated
Sun 04:20:00 PM 35.4333 -119.0500 321° Northwest  Level FlightAware Approximate
Sun 04:21:00 PM 35.4339 -119.0577 321° Northwest  Level Estimated
Sun 04:22:00 PM 35.4333 -119.0500 321° Northwest  Level FlightAware Approximate

Login

Don't have an account? Register now (free) for customized features, flight alerts, and more!